KSIK/SIK METAR and TAF weather

Enter ICAO airport designator
Station Type Date Time Source
KSIK METAR 2020/01/22 18:35 UTC NOAA

KSIK 221835Z AUTO 13007KT 10SM CLR 01/M03 A3029 RMK AO2


Station Type Date Time Source
KSIK Decoded METAR 2020/01/22 18:35 UTC NOAA

Station name not available
Jan 22, 2020 - 01:35 PM EST / 2020.01.22 1835 UTC
Wind: from the SE (130 degrees) at 8 MPH (7 KT):0
Visibility: 10 mile(s):0
Sky conditions: clear
Temperature: 33 F (1 C)
Windchill: 26 F (-3 C):1
Dew Point: 26 F (-3 C)
Relative Humidity: 74%
Pressure (altimeter): 30.29 in. Hg (1025 hPa)
ob: KSIK 221835Z AUTO 13007KT 10SM CLR 01/M03 A3029 RMK AO2
cycle: 18

Station Type Date Time Source
KSIK TAF UTC NOAA

Error!

Example: see airport list